aviador You're here:

CYOY Decoded Metar

VALCARTIER AIRPO in QC, CANADA
Report Time2017-09-23 09:00:00
UTC Time2017-09-23 09:17:02
Flight Rules vfr VFR
WindCalm
Visibility9999 m
Phenomena:N/A
Clouds:Few 064 Hf
CeilingNone
Temp10°C (ISA -4)
Dew Point10°C (100% RH)
QNH1017 hPa
Density Alt115 ft
Elevation551 ft
Report Wrong Elevation
Raw Report
CYOY 230900Z AUTO 00000KT 9SM FEW064 10/10 A3002 RMK ICG PAST HR
SLP167=

Extra information for CYOY:More info

Metar Taf Metar & Taf Last 4 Metars F.Rules Stats Wind Profile Meteogram Temp Stats Airport Information Weather charts Add Link Nearby VenuesMetar ALERT Operation Metar Decoded Social comments